createdAt,value
2018-12-10T00:01:18.090Z,3.03
2018-12-10T00:03:50.278Z,2.40
2018-12-10T00:06:22.524Z,1.63
2018-12-10T00:08:52.699Z,2.40
2018-12-10T00:11:22.868Z,2.70
2018-12-10T00:13:53.030Z,2.70
2018-12-10T00:16:23.262Z,2.40
2018-12-10T00:18:53.689Z,2.87
2018-12-10T00:21:24.028Z,2.33
2018-12-10T00:23:54.188Z,2.23
2018-12-10T00:26:24.423Z,1.83
2018-12-10T00:28:54.621Z,2.53
2018-12-10T00:31:28.995Z,1.73
2018-12-10T00:33:59.485Z,2.10
2018-12-10T00:36:29.739Z,2.27
2018-12-10T00:38:59.949Z,2.87
2018-12-10T00:41:30.203Z,2.63
2018-12-10T00:44:00.456Z,1.73
2018-12-10T00:46:31.572Z,2.40
2018-12-10T00:49:01.743Z,2.00
2018-12-10T00:51:31.921Z,1.70
2018-12-10T00:54:02.153Z,2.43
2018-12-10T00:56:32.285Z,2.70
2018-12-10T00:59:02.608Z,1.97
2018-12-10T01:01:32.853Z,1.97
2018-12-10T01:04:03.096Z,2.27
2018-12-10T01:06:33.208Z,2.43
2018-12-10T01:09:03.757Z,3.03
2018-12-10T01:11:35.001Z,2.27
2018-12-10T01:14:05.188Z,1.93
2018-12-10T01:16:35.342Z,2.13
2018-12-10T01:19:05.553Z,2.47
2018-12-10T01:21:35.687Z,2.80
2018-12-10T01:24:06.020Z,2.00
2018-12-10T01:26:36.156Z,2.47
2018-12-10T01:29:06.466Z,2.30
2018-12-10T01:31:36.647Z,1.70
2018-12-10T01:34:07.834Z,2.30
2018-12-10T01:36:38.195Z,2.00
2018-12-10T01:39:08.323Z,1.40
2018-12-10T01:41:38.536Z,1.70
2018-12-10T01:44:08.699Z,2.50
2018-12-10T01:46:38.828Z,1.30
2018-12-10T01:49:08.964Z,2.50
2018-12-10T01:51:39.178Z,1.53
2018-12-10T01:54:09.378Z,1.53
2018-12-10T01:56:39.474Z,1.10
2018-12-10T01:59:09.669Z,1.40
2018-12-10T02:01:39.824Z,1.47
2018-12-10T02:04:10.003Z,1.57
2018-12-10T02:06:40.126Z,0.73
2018-12-10T02:09:10.317Z,1.10
2018-12-10T02:11:40.487Z,1.53
2018-12-10T02:14:10.685Z,1.27
2018-12-10T02:16:40.879Z,1.30
2018-12-10T02:19:11.106Z,1.43
2018-12-10T02:21:41.331Z,1.00
2018-12-10T02:24:11.451Z,0.77
2018-12-10T02:26:41.624Z,1.30
2018-12-10T02:29:14.068Z,0.70
2018-12-10T02:31:44.506Z,1.53
2018-12-10T02:34:14.641Z,1.30
2018-12-10T02:36:44.873Z,1.40
2018-12-10T02:39:14.957Z,1.10
2018-12-10T02:41:45.181Z,1.47
2018-12-10T02:44:15.322Z,1.07
2018-12-10T02:46:45.568Z,0.77
2018-12-10T02:49:16.158Z,1.00
2018-12-10T02:51:46.266Z,1.00
2018-12-10T02:54:16.405Z,1.63
2018-12-10T02:56:46.577Z,0.97
2018-12-10T02:59:16.652Z,0.90
2018-12-10T03:01:46.909Z,0.70
2018-12-10T03:04:17.038Z,1.03
2018-12-10T03:06:47.228Z,0.97
2018-12-10T03:09:17.563Z,0.90
2018-12-10T03:11:47.708Z,0.97
2018-12-10T03:14:17.854Z,0.87
2018-12-10T03:16:48.041Z,0.93
2018-12-10T03:19:18.156Z,0.67
2018-12-10T03:21:48.337Z,1.10
2018-12-10T03:24:18.411Z,1.00
2018-12-10T03:26:48.568Z,0.93
2018-12-10T03:29:18.697Z,1.00
2018-12-10T03:31:48.977Z,1.00
2018-12-10T03:34:19.092Z,1.00
2018-12-10T03:36:49.246Z,1.20
2018-12-10T03:39:19.336Z,0.97
2018-12-10T03:41:49.518Z,1.27
2018-12-10T03:44:19.603Z,1.00
2018-12-10T03:46:49.827Z,1.40
2018-12-10T03:49:19.962Z,1.10
2018-12-10T03:51:50.107Z,1.60
2018-12-10T03:54:21.358Z,1.20
2018-12-10T03:56:51.519Z,1.00
2018-12-10T03:59:21.725Z,1.17
2018-12-10T04:01:51.899Z,1.40
2018-12-10T04:04:22.066Z,1.20
2018-12-10T04:06:52.394Z,1.10
2018-12-10T04:09:22.638Z,1.23
2018-12-10T04:11:52.843Z,1.50
2018-12-10T04:14:23.023Z,2.00
2018-12-10T04:16:53.210Z,1.50
2018-12-10T04:19:23.405Z,1.80
2018-12-10T04:21:53.583Z,1.47
2018-12-10T04:24:24.068Z,1.93
2018-12-10T04:26:54.261Z,1.50
2018-12-10T04:29:24.481Z,1.70
2018-12-10T04:31:54.667Z,1.70
2018-12-10T04:34:24.917Z,1.63
2018-12-10T04:36:55.143Z,1.70
2018-12-10T04:39:25.359Z,1.70
2018-12-10T04:41:55.513Z,1.90
2018-12-10T04:44:25.681Z,1.97
2018-12-10T04:46:55.893Z,2.30
2018-12-10T04:49:26.058Z,1.67
2018-12-10T04:51:56.198Z,1.87
2018-12-10T04:54:26.478Z,2.63
2018-12-10T04:56:56.626Z,2.10
2018-12-10T04:59:28.014Z,2.40
2018-12-10T05:01:58.165Z,2.23
2018-12-10T05:04:28.383Z,2.47
2018-12-10T05:06:58.552Z,2.97
2018-12-10T05:09:29.801Z,2.03
2018-12-10T05:11:59.960Z,2.13
2018-12-10T05:14:30.117Z,2.37
2018-12-10T05:17:00.210Z,2.20
2018-12-10T05:19:30.340Z,2.80
2018-12-10T05:22:00.472Z,2.37
2018-12-10T05:24:30.656Z,2.43
2018-12-10T05:27:01.312Z,2.57
2018-12-10T05:29:31.738Z,2.63
2018-12-10T05:32:01.854Z,2.63
2018-12-10T05:34:32.006Z,2.50
2018-12-10T05:37:02.170Z,2.73
2018-12-10T05:39:32.728Z,2.70
2018-12-10T05:42:02.953Z,3.57
2018-12-10T05:44:33.246Z,2.43
2018-12-10T05:47:03.438Z,2.30
2018-12-10T05:49:33.584Z,2.33
2018-12-10T05:52:04.220Z,2.00
2018-12-10T05:54:34.686Z,2.47
2018-12-10T05:57:04.904Z,1.73
2018-12-10T05:59:35.138Z,2.07
2018-12-10T06:02:05.282Z,2.83
2018-12-10T06:04:35.382Z,2.30
2018-12-10T06:07:05.585Z,2.53
2018-12-10T06:09:35.702Z,3.43
2018-12-10T06:12:05.820Z,3.40
2018-12-10T06:14:35.889Z,2.77
2018-12-10T06:17:06.053Z,4.33
2018-12-10T06:19:36.158Z,4.43
2018-12-10T06:22:06.345Z,3.50
2018-12-10T06:24:36.458Z,4.60
2018-12-10T06:27:06.562Z,3.50
2018-12-10T06:29:36.783Z,3.70
2018-12-10T06:32:06.879Z,3.00
2018-12-10T06:34:37.017Z,2.53
2018-12-10T06:37:07.099Z,3.00
2018-12-10T06:39:37.379Z,3.03
2018-12-10T06:42:09.739Z,2.50
2018-12-10T06:44:39.957Z,3.07
2018-12-10T06:47:10.256Z,3.80
2018-12-10T06:49:40.500Z,2.23
2018-12-10T06:52:10.955Z,1.63
2018-12-10T06:54:41.297Z,8.37
2018-12-10T06:57:11.627Z,2.30
2018-12-10T06:59:42.988Z,1.10
2018-12-10T07:02:13.335Z,1.80
2018-12-10T07:04:43.639Z,2.00
2018-12-10T07:07:13.866Z,1.90
2018-12-10T07:09:44.085Z,2.90
2018-12-10T07:12:14.366Z,2.90
2018-12-10T07:14:44.653Z,4.10
2018-12-10T07:17:14.916Z,6.90
2018-12-10T07:19:45.300Z,10.57
2018-12-10T07:22:15.709Z,5.70
2018-12-10T07:24:46.017Z,4.67
2018-12-10T07:27:16.524Z,4.03
2018-12-10T07:29:46.819Z,4.03
2018-12-10T07:32:17.039Z,4.70
2018-12-10T07:34:47.352Z,3.73
2018-12-10T07:37:17.721Z,4.70
2018-12-10T07:39:48.065Z,5.33
2018-12-10T07:42:20.764Z,4.50
2018-12-10T07:44:51.601Z,4.70
2018-12-10T07:47:21.826Z,4.57
2018-12-10T07:49:52.171Z,3.73
2018-12-10T07:52:22.438Z,4.20
2018-12-10T07:54:52.689Z,3.63
2018-12-10T07:57:22.907Z,3.60
2018-12-10T07:59:53.221Z,2.80
2018-12-10T08:02:23.367Z,4.27
2018-12-10T08:04:53.577Z,3.17
2018-12-10T08:07:23.854Z,3.80
2018-12-10T08:09:54.183Z,3.67
2018-12-10T08:12:24.468Z,3.83
2018-12-10T08:14:54.672Z,3.07
2018-12-10T08:17:25.002Z,2.70
2018-12-10T08:19:56.211Z,3.00
2018-12-10T08:22:26.427Z,2.33
2018-12-10T08:24:56.721Z,1.23
2018-12-10T08:27:27.022Z,2.37
2018-12-10T08:29:57.386Z,2.10
2018-12-10T08:32:27.834Z,2.50
2018-12-10T08:34:58.267Z,2.00
2018-12-10T08:37:29.573Z,2.17
2018-12-10T08:39:59.931Z,2.03
2018-12-10T08:42:30.294Z,1.87
2018-12-10T08:45:01.312Z,3.20
2018-12-10T08:47:31.526Z,1.70
2018-12-10T08:50:01.767Z,2.30
2018-12-10T08:52:32.369Z,1.77
2018-12-10T08:55:03.200Z,2.30
2018-12-10T08:57:33.500Z,1.73
2018-12-10T09:00:03.783Z,1.70
2018-12-10T09:02:35.087Z,2.83
2018-12-10T09:05:05.285Z,4.00
2018-12-10T09:07:35.509Z,5.00
2018-12-10T09:10:06.952Z,4.00
2018-12-10T09:12:37.227Z,2.77
2018-12-10T09:15:08.715Z,3.93
2018-12-10T09:17:41.443Z,4.10
2018-12-10T09:20:13.117Z,3.70
2018-12-10T09:22:43.502Z,3.10
2018-12-10T09:25:24.477Z,4.33
2018-12-10T09:27:52.531Z,5.10
2018-12-10T09:30:22.680Z,4.53
2018-12-10T09:32:52.782Z,5.80
2018-12-10T09:35:23.198Z,4.73
2018-12-10T09:37:55.090Z,4.50
2018-12-10T09:40:25.250Z,4.50
2018-12-10T09:42:55.461Z,3.83
2018-12-10T09:45:25.772Z,2.80
2018-12-10T09:47:57.121Z,3.90
2018-12-10T09:50:33.345Z,2.70
2018-12-10T09:53:04.454Z,4.17
2018-12-10T09:55:34.711Z,2.80
2018-12-10T09:58:06.554Z,3.93
2018-12-10T10:03:39.773Z,2.90
2018-12-10T10:06:09.908Z,3.63
2018-12-10T10:08:40.134Z,3.37
2018-12-10T10:11:10.353Z,3.97
2018-12-10T10:13:40.488Z,2.60
2018-12-10T10:16:10.711Z,2.30
2018-12-10T10:18:41.123Z,3.63
2018-12-10T10:21:11.660Z,3.57
2018-12-10T10:23:41.883Z,4.27
2018-12-10T10:26:12.097Z,3.07
2018-12-10T10:28:42.326Z,2.70
2018-12-10T10:31:12.559Z,3.00
2018-12-10T10:33:45.943Z,2.87
2018-12-10T10:36:17.405Z,2.70
2018-12-10T10:38:47.670Z,2.87
2018-12-10T10:41:31.114Z,2.53
2018-12-10T10:44:01.978Z,2.07
2018-12-10T10:46:32.283Z,2.17
2018-12-10T10:49:02.599Z,2.13
2018-12-10T10:51:32.758Z,2.43
2018-12-10T10:54:03.274Z,2.30
2018-12-10T10:56:33.733Z,2.87
2018-12-10T10:59:04.300Z,2.47
2018-12-10T11:01:40.907Z,1.87
2018-12-10T11:04:14.380Z,2.60
2018-12-10T11:06:46.220Z,3.07
2018-12-10T11:09:20.042Z,2.10
2018-12-10T11:11:50.843Z,2.13
2018-12-10T11:14:23.884Z,2.30
2018-12-10T11:16:59.072Z,2.20
2018-12-10T11:19:29.594Z,2.33
2018-12-10T11:22:00.090Z,2.00
2018-12-10T11:24:30.619Z,1.97
2018-12-10T11:27:02.000Z,2.17
2018-12-10T11:29:32.368Z,1.83
2018-12-10T11:32:02.739Z,2.73
2018-12-10T11:34:33.048Z,2.87
2018-12-10T11:37:09.208Z,2.10
2018-12-10T11:39:40.620Z,2.30
2018-12-10T11:42:12.240Z,2.30
2018-12-10T11:44:42.491Z,1.80
2018-12-10T11:47:13.763Z,2.43
2018-12-10T11:49:44.263Z,2.87
2018-12-10T11:52:14.561Z,2.73
2018-12-10T11:54:45.359Z,2.70
2018-12-10T11:57:15.875Z,2.70
2018-12-10T11:59:46.331Z,3.63
2018-12-10T12:02:16.874Z,2.80
2018-12-10T12:04:48.013Z,2.10
2018-12-10T12:07:21.139Z,3.03
2018-12-10T12:09:51.627Z,1.50
2018-12-10T12:12:29.137Z,2.70
2018-12-10T12:15:00.027Z,3.10
2018-12-10T12:17:30.650Z,2.80
2018-12-10T12:20:01.174Z,5.43
2018-12-10T12:22:31.790Z,4.90
2018-12-10T12:25:02.493Z,2.43
2018-12-10T12:27:32.747Z,2.17
2018-12-10T12:30:03.764Z,3.43
2018-12-10T12:32:34.225Z,3.00
2018-12-10T12:35:04.480Z,3.60
2018-12-10T12:37:35.942Z,2.77
2018-12-10T12:40:06.356Z,2.60
2018-12-10T12:42:36.659Z,1.90
2018-12-10T12:45:08.300Z,2.40
2018-12-10T12:47:38.637Z,2.70
2018-12-10T12:50:11.439Z,3.47
2018-12-10T12:52:43.070Z,3.40
2018-12-10T12:55:13.541Z,1.67
2018-12-10T12:57:43.792Z,3.10
2018-12-10T13:00:14.008Z,2.50
2018-12-10T13:02:44.235Z,2.10
2018-12-10T13:05:14.438Z,1.90
2018-12-10T13:07:44.765Z,2.13
2018-12-10T13:10:14.931Z,2.47
2018-12-10T13:12:45.117Z,3.33
2018-12-10T13:15:15.879Z,2.00
2018-12-10T13:17:45.976Z,2.10
2018-12-10T13:20:16.358Z,2.43
2018-12-10T13:22:47.511Z,2.77
2018-12-10T13:25:19.388Z,2.67
2018-12-10T13:27:49.701Z,2.40
2018-12-10T13:30:20.920Z,2.90
2018-12-10T13:32:53.814Z,2.47
2018-12-10T13:35:24.344Z,1.67
2018-12-10T13:37:56.101Z,4.13
2018-12-10T13:40:26.294Z,2.13
2018-12-10T13:42:58.969Z,2.03
2018-12-10T13:45:38.967Z,2.80
2018-12-10T13:48:13.190Z,2.60
2018-12-10T13:50:43.778Z,3.20
2018-12-10T13:53:15.084Z,2.97
2018-12-10T13:55:45.315Z,5.03
2018-12-10T13:58:18.869Z,2.63
2018-12-10T14:03:44.444Z,2.30
2018-12-10T14:06:14.887Z,3.27
2018-12-10T14:08:53.680Z,2.63
2018-12-10T14:11:25.331Z,3.10
2018-12-10T14:13:55.830Z,3.20
2018-12-10T14:19:16.506Z,3.80
2018-12-10T14:21:46.706Z,3.47
2018-12-10T14:24:16.926Z,3.60
2018-12-10T14:26:47.005Z,4.20
2018-12-10T14:29:17.858Z,2.93
2018-12-10T14:31:48.059Z,3.30
2018-12-10T14:34:23.480Z,2.47
2018-12-10T14:36:53.780Z,3.17
2018-12-10T14:39:24.105Z,2.37
2018-12-10T14:41:54.173Z,3.17
2018-12-10T14:44:24.376Z,4.03
2018-12-10T14:46:54.460Z,3.57
2018-12-10T14:49:24.572Z,3.00
2018-12-10T14:51:55.057Z,3.87
2018-12-10T14:54:25.766Z,3.67
2018-12-10T14:56:56.089Z,3.90
2018-12-10T14:59:26.304Z,4.27
2018-12-10T15:01:56.596Z,3.60
2018-12-10T15:04:29.555Z,3.63
2018-12-10T15:06:59.683Z,2.67
2018-12-10T15:09:30.671Z,3.07
2018-12-10T15:12:02.134Z,4.10
2018-12-10T15:14:38.261Z,2.73
2018-12-10T15:17:09.579Z,2.93
2018-12-10T15:19:44.533Z,3.83
2018-12-10T15:22:15.723Z,3.13
2018-12-10T15:24:46.131Z,3.40
2018-12-10T15:27:16.400Z,2.80
2018-12-10T15:29:46.548Z,2.93
2018-12-10T15:32:16.887Z,3.83
2018-12-10T15:34:47.196Z,3.47
2018-12-10T15:37:18.668Z,3.50
2018-12-10T15:39:49.376Z,3.93
2018-12-10T15:42:19.706Z,2.83
2018-12-10T15:44:50.117Z,2.53
2018-12-10T15:47:20.415Z,4.27
2018-12-10T15:49:50.648Z,4.60
2018-12-10T15:52:20.917Z,4.53
2018-12-10T15:54:51.191Z,3.30
2018-12-10T15:57:21.953Z,3.33
2018-12-10T15:59:52.159Z,4.40
2018-12-10T16:02:22.448Z,4.80
2018-12-10T16:04:52.612Z,4.87
2018-12-10T16:07:23.635Z,2.80
2018-12-10T16:09:54.885Z,4.77
2018-12-10T16:12:25.039Z,5.10
2018-12-10T16:14:56.137Z,4.90
2018-12-10T16:17:26.277Z,4.80
2018-12-10T16:19:56.530Z,4.27
2018-12-10T16:22:26.642Z,4.97
2018-12-10T16:24:56.943Z,2.63
2018-12-10T16:27:27.469Z,11.73
2018-12-10T16:29:57.615Z,4.20
2018-12-10T16:32:28.105Z,3.23
2018-12-10T16:34:58.478Z,4.03
2018-12-10T16:37:39.587Z,3.77
2018-12-10T16:40:09.858Z,3.80
2018-12-10T16:42:40.015Z,3.67
2018-12-10T16:45:10.418Z,4.17
2018-12-10T16:47:41.140Z,3.50
2018-12-10T16:50:11.493Z,5.80
2018-12-10T16:52:41.954Z,5.17
2018-12-10T16:55:12.726Z,4.83
2018-12-10T16:57:43.213Z,3.87
2018-12-10T17:00:15.222Z,3.77
2018-12-10T17:02:45.388Z,3.80
2018-12-10T17:05:15.722Z,2.63
2018-12-10T17:07:47.559Z,4.47
2018-12-10T17:10:19.648Z,3.83
2018-12-10T17:12:52.082Z,4.20
2018-12-10T17:15:22.847Z,3.50
2018-12-10T17:17:53.270Z,3.50
2018-12-10T17:20:23.659Z,4.43
2018-12-10T17:22:55.787Z,3.53
2018-12-10T17:25:26.518Z,4.27
2018-12-10T17:27:57.272Z,3.73
2018-12-10T17:30:28.400Z,4.40
2018-12-10T17:32:58.831Z,4.43
2018-12-10T17:35:29.802Z,3.27
2018-12-10T17:40:58.062Z,3.63
2018-12-10T17:43:29.842Z,4.67
2018-12-10T17:46:01.001Z,4.10
2018-12-10T17:48:32.157Z,5.13
2018-12-10T17:51:02.455Z,3.77
2018-12-10T17:53:33.502Z,6.57
2018-12-10T17:56:04.985Z,3.57
2018-12-10T17:58:35.483Z,5.40
2018-12-10T18:01:06.517Z,3.60
2018-12-10T18:03:36.837Z,5.17
2018-12-10T18:06:07.159Z,4.90
2018-12-10T18:08:38.303Z,4.83
2018-12-10T18:11:15.220Z,4.97
2018-12-10T18:13:46.542Z,6.17
2018-12-10T18:16:17.036Z,4.30
2018-12-10T18:18:48.162Z,5.43
2018-12-10T18:21:19.242Z,5.13
2018-12-10T18:23:49.719Z,4.23
2018-12-10T18:26:21.256Z,5.30
2018-12-10T18:28:51.838Z,5.33
2018-12-10T18:31:22.621Z,6.27
2018-12-10T21:43:53.768Z,4.05
2018-12-10T21:46:24.045Z,4.70
2018-12-10T21:48:54.180Z,5.25
2018-12-10T21:51:24.398Z,5.17
2018-12-10T21:54:01.083Z,5.57
2018-12-10T21:56:31.285Z,6.20
2018-12-10T21:59:01.345Z,6.10
2018-12-10T22:01:31.511Z,6.57
2018-12-10T22:04:01.793Z,7.20
2018-12-10T22:06:32.012Z,7.53
2018-12-10T22:09:02.212Z,7.33
2018-12-10T22:11:33.369Z,7.40
2018-12-10T22:14:03.580Z,7.90
2018-12-10T22:16:33.706Z,7.43
2018-12-10T22:19:03.926Z,7.40
2018-12-10T22:21:34.091Z,7.57
2018-12-10T22:24:04.286Z,7.00
2018-12-10T22:26:34.429Z,8.10
2018-12-10T22:29:04.502Z,7.10
2018-12-10T22:31:34.675Z,7.90
2018-12-10T22:34:04.975Z,7.43
2018-12-10T22:36:35.063Z,8.30
2018-12-10T22:39:07.644Z,8.33
2018-12-10T22:41:37.786Z,7.00
2018-12-10T22:44:09.365Z,7.07
2018-12-10T22:46:39.545Z,6.00
2018-12-10T22:49:09.782Z,5.63
2018-12-10T22:51:40.065Z,5.90
2018-12-10T22:54:10.595Z,5.47
2018-12-10T22:56:40.817Z,6.07
2018-12-10T22:59:10.976Z,5.70
2018-12-10T23:01:41.133Z,5.63
2018-12-10T23:04:11.280Z,6.40
2018-12-10T23:06:48.097Z,6.00
2018-12-10T23:09:18.251Z,6.83
2018-12-10T23:11:48.375Z,6.43
2018-12-10T23:14:18.509Z,6.73
2018-12-10T23:16:48.638Z,6.80
2018-12-10T23:19:18.733Z,7.00
2018-12-10T23:21:48.826Z,6.70
2018-12-10T23:24:19.073Z,7.90
2018-12-10T23:26:49.168Z,7.43
2018-12-10T23:29:19.273Z,7.00
2018-12-10T23:31:52.322Z,7.00
2018-12-10T23:34:26.262Z,7.57
2018-12-10T23:36:58.192Z,6.97
2018-12-10T23:39:28.596Z,7.57
2018-12-10T23:42:00.635Z,7.43
2018-12-10T23:44:36.574Z,7.40
2018-12-10T23:47:06.858Z,7.00
2018-12-10T23:49:37.046Z,7.47
2018-12-10T23:52:07.249Z,6.97
2018-12-10T23:54:37.436Z,7.50
2018-12-10T23:57:07.643Z,6.60
2018-12-10T23:59:37.716Z,7.97
